sensor_id;sensor_type;location;lat;lon;timestamp;temperature;humidity
5556;DHT22;2801;50.972;7.856;2023-07-28T00:00:47;15.70;99.90
5556;DHT22;2801;50.972;7.856;2023-07-28T00:03:15;15.60;99.90
5556;DHT22;2801;50.972;7.856;2023-07-28T00:05:41;15.70;99.90
5556;DHT22;2801;50.972;7.856;2023-07-28T00:08:08;15.70;99.90
5556;DHT22;2801;50.972;7.856;2023-07-28T00:10:40;15.70;99.90
5556;DHT22;2801;50.972;7.856;2023-07-28T00:13:09;15.60;99.90
5556;DHT22;2801;50.972;7.856;2023-07-28T00:15:36;15.60;99.90
5556;DHT22;2801;50.972;7.856;2023-07-28T00:18:03;15.60;99.90
5556;DHT22;2801;50.972;7.856;2023-07-28T00:20:30;15.60;99.90
5556;DHT22;2801;50.972;7.856;2023-07-28T00:22:57;15.70;99.90
5556;DHT22;2801;50.972;7.856;2023-07-28T00:25:25;15.70;99.90
5556;DHT22;2801;50.972;7.856;2023-07-28T00:27:52;15.60;99.90
5556;DHT22;2801;50.972;7.856;2023-07-28T00:30:19;15.60;99.90
5556;DHT22;2801;50.972;7.856;2023-07-28T00:32:46;15.60;99.90
5556;DHT22;2801;50.972;7.856;2023-07-28T00:35:13;15.60;99.90
5556;DHT22;2801;50.972;7.856;2023-07-28T00:37:40;15.60;99.90
5556;DHT22;2801;50.972;7.856;2023-07-28T00:40:07;15.60;99.90
5556;DHT22;2801;50.972;7.856;2023-07-28T00:42:35;15.60;99.90
5556;DHT22;2801;50.972;7.856;2023-07-28T00:45:03;15.60;99.90
5556;DHT22;2801;50.972;7.856;2023-07-28T00:47:30;15.60;99.90
5556;DHT22;2801;50.972;7.856;2023-07-28T00:49:58;15.60;99.90
5556;DHT22;2801;50.972;7.856;2023-07-28T00:52:25;15.60;99.90
5556;DHT22;2801;50.972;7.856;2023-07-28T00:54:52;15.60;99.90
5556;DHT22;2801;50.972;7.856;2023-07-28T00:57:19;15.50;99.90
5556;DHT22;2801;50.972;7.856;2023-07-28T00:59:46;15.60;99.90
5556;DHT22;2801;50.972;7.856;2023-07-28T01:02:17;15.60;99.90
5556;DHT22;2801;50.972;7.856;2023-07-28T01:04:45;15.60;99.90
5556;DHT22;2801;50.972;7.856;2023-07-28T01:07:26;15.50;99.90
5556;DHT22;2801;50.972;7.856;2023-07-28T01:10:30;15.60;99.90
5556;DHT22;2801;50.972;7.856;2023-07-28T01:13:01;15.70;99.90
5556;DHT22;2801;50.972;7.856;2023-07-28T01:15:27;15.60;99.90
5556;DHT22;2801;50.972;7.856;2023-07-28T01:17:54;15.60;99.90
5556;DHT22;2801;50.972;7.856;2023-07-28T01:20:24;15.60;99.90
5556;DHT22;2801;50.972;7.856;2023-07-28T01:24:08;15.60;99.90
5556;DHT22;2801;50.972;7.856;2023-07-28T01:26:12;15.60;99.90
5556;DHT22;2801;50.972;7.856;2023-07-28T01:28:43;15.60;99.90
5556;DHT22;2801;50.972;7.856;2023-07-28T01:31:11;15.70;99.90
5556;DHT22;2801;50.972;7.856;2023-07-28T01:33:38;15.60;99.90
5556;DHT22;2801;50.972;7.856;2023-07-28T01:36:05;15.60;99.90
5556;DHT22;2801;50.972;7.856;2023-07-28T01:38:32;15.70;99.90
5556;DHT22;2801;50.972;7.856;2023-07-28T01:40:58;15.70;99.90
5556;DHT22;2801;50.972;7.856;2023-07-28T01:43:25;15.60;99.90
5556;DHT22;2801;50.972;7.856;2023-07-28T01:45:52;15.60;99.90
5556;DHT22;2801;50.972;7.856;2023-07-28T01:48:19;15.60;99.90
5556;DHT22;2801;50.972;7.856;2023-07-28T01:50:46;15.60;99.90
5556;DHT22;2801;50.972;7.856;2023-07-28T01:53:13;15.60;99.90
5556;DHT22;2801;50.972;7.856;2023-07-28T01:55:40;15.60;99.90
5556;DHT22;2801;50.972;7.856;2023-07-28T01:58:07;15.60;99.90
5556;DHT22;2801;50.972;7.856;2023-07-28T02:00:34;15.60;99.90
5556;DHT22;2801;50.972;7.856;2023-07-28T02:03:01;15.70;99.90
5556;DHT22;2801;50.972;7.856;2023-07-28T02:05:30;15.60;99.90
5556;DHT22;2801;50.972;7.856;2023-07-28T02:07:58;15.60;99.90
5556;DHT22;2801;50.972;7.856;2023-07-28T02:10:26;15.60;99.90
5556;DHT22;2801;50.972;7.856;2023-07-28T02:12:55;15.60;99.90
5556;DHT22;2801;50.972;7.856;2023-07-28T02:15:22;15.60;99.90
5556;DHT22;2801;50.972;7.856;2023-07-28T02:17:49;15.60;99.90
5556;DHT22;2801;50.972;7.856;2023-07-28T02:20:16;15.70;99.90
5556;DHT22;2801;50.972;7.856;2023-07-28T02:22:43;15.60;99.90
5556;DHT22;2801;50.972;7.856;2023-07-28T02:25:10;15.60;99.90
5556;DHT22;2801;50.972;7.856;2023-07-28T02:27:38;15.60;99.90
5556;DHT22;2801;50.972;7.856;2023-07-28T02:30:06;15.70;99.90
5556;DHT22;2801;50.972;7.856;2023-07-28T02:32:34;15.70;99.90
5556;DHT22;2801;50.972;7.856;2023-07-28T02:35:01;15.70;99.90
5556;DHT22;2801;50.972;7.856;2023-07-28T02:37:28;15.60;99.90
5556;DHT22;2801;50.972;7.856;2023-07-28T02:39:55;15.70;99.90
5556;DHT22;2801;50.972;7.856;2023-07-28T02:42:22;15.70;99.90
5556;DHT22;2801;50.972;7.856;2023-07-28T02:44:50;15.70;99.90
5556;DHT22;2801;50.972;7.856;2023-07-28T02:47:17;15.80;99.90
5556;DHT22;2801;50.972;7.856;2023-07-28T02:49:44;15.70;99.90
5556;DHT22;2801;50.972;7.856;2023-07-28T02:52:12;15.70;99.90
5556;DHT22;2801;50.972;7.856;2023-07-28T02:54:39;15.80;99.90
5556;DHT22;2801;50.972;7.856;2023-07-28T02:57:06;15.80;99.90
5556;DHT22;2801;50.972;7.856;2023-07-28T02:59:33;15.80;99.90
5556;DHT22;2801;50.972;7.856;2023-07-28T03:02:00;15.70;99.90
5556;DHT22;2801;50.972;7.856;2023-07-28T03:04:27;15.80;99.90
5556;DHT22;2801;50.972;7.856;2023-07-28T03:06:54;15.80;99.90
5556;DHT22;2801;50.972;7.856;2023-07-28T03:09:21;15.80;99.90
5556;DHT22;2801;50.972;7.856;2023-07-28T03:11:48;15.80;99.90
5556;DHT22;2801;50.972;7.856;2023-07-28T03:14:15;15.80;99.90
5556;DHT22;2801;50.972;7.856;2023-07-28T03:16:42;15.80;99.90
5556;DHT22;2801;50.972;7.856;2023-07-28T03:19:09;15.90;99.90
5556;DHT22;2801;50.972;7.856;2023-07-28T03:21:36;15.80;99.90
5556;DHT22;2801;50.972;7.856;2023-07-28T03:24:05;15.80;99.90
5556;DHT22;2801;50.972;7.856;2023-07-28T03:26:33;15.80;99.90
5556;DHT22;2801;50.972;7.856;2023-07-28T03:29:00;15.80;99.90
5556;DHT22;2801;50.972;7.856;2023-07-28T03:31:27;15.80;99.90
5556;DHT22;2801;50.972;7.856;2023-07-28T03:33:54;15.80;99.90
5556;DHT22;2801;50.972;7.856;2023-07-28T03:36:21;15.80;99.90
5556;DHT22;2801;50.972;7.856;2023-07-28T03:38:48;15.80;99.90
5556;DHT22;2801;50.972;7.856;2023-07-28T03:41:15;15.80;99.90
5556;DHT22;2801;50.972;7.856;2023-07-28T03:43:42;15.80;99.90
5556;DHT22;2801;50.972;7.856;2023-07-28T03:46:09;15.90;99.90
5556;DHT22;2801;50.972;7.856;2023-07-28T03:48:36;15.90;99.90
5556;DHT22;2801;50.972;7.856;2023-07-28T03:51:03;15.90;99.90
5556;DHT22;2801;50.972;7.856;2023-07-28T03:53:30;15.90;99.90
5556;DHT22;2801;50.972;7.856;2023-07-28T03:55:57;15.90;99.90
5556;DHT22;2801;50.972;7.856;2023-07-28T03:58:25;15.90;99.90
5556;DHT22;2801;50.972;7.856;2023-07-28T04:00:52;15.90;99.90
5556;DHT22;2801;50.972;7.856;2023-07-28T04:03:20;15.90;99.90
5556;DHT22;2801;50.972;7.856;2023-07-28T04:05:47;15.90;99.90
5556;DHT22;2801;50.972;7.856;2023-07-28T04:08:14;15.90;99.90
5556;DHT22;2801;50.972;7.856;2023-07-28T04:10:41;15.90;99.90
5556;DHT22;2801;50.972;7.856;2023-07-28T04:13:08;15.90;99.90
5556;DHT22;2801;50.972;7.856;2023-07-28T04:15:36;15.90;99.90
5556;DHT22;2801;50.972;7.856;2023-07-28T04:18:03;15.90;99.90
5556;DHT22;2801;50.972;7.856;2023-07-28T04:20:30;15.90;99.90
5556;DHT22;2801;50.972;7.856;2023-07-28T04:22:57;15.90;99.90
5556;DHT22;2801;50.972;7.856;2023-07-28T04:25:24;15.90;99.90
5556;DHT22;2801;50.972;7.856;2023-07-28T04:27:51;16.00;99.90
5556;DHT22;2801;50.972;7.856;2023-07-28T04:30:18;15.90;99.90
5556;DHT22;2801;50.972;7.856;2023-07-28T04:32:44;15.90;99.90
5556;DHT22;2801;50.972;7.856;2023-07-28T04:35:12;15.90;99.90
5556;DHT22;2801;50.972;7.856;2023-07-28T04:37:40;15.90;99.90
5556;DHT22;2801;50.972;7.856;2023-07-28T04:40:08;15.90;99.90
5556;DHT22;2801;50.972;7.856;2023-07-28T04:42:35;16.00;99.90
5556;DHT22;2801;50.972;7.856;2023-07-28T04:45:03;16.00;99.90
5556;DHT22;2801;50.972;7.856;2023-07-28T04:47:31;16.00;99.90
5556;DHT22;2801;50.972;7.856;2023-07-28T04:49:59;16.00;99.90
5556;DHT22;2801;50.972;7.856;2023-07-28T04:52:26;16.00;99.90
5556;DHT22;2801;50.972;7.856;2023-07-28T04:54:53;16.00;99.90
5556;DHT22;2801;50.972;7.856;2023-07-28T04:57:20;16.10;99.90
5556;DHT22;2801;50.972;7.856;2023-07-28T04:59:47;16.10;99.90
5556;DHT22;2801;50.972;7.856;2023-07-28T05:02:14;16.10;99.90
5556;DHT22;2801;50.972;7.856;2023-07-28T05:04:41;16.10;99.90
5556;DHT22;2801;50.972;7.856;2023-07-28T05:07:08;16.10;99.90
5556;DHT22;2801;50.972;7.856;2023-07-28T05:09:34;16.10;99.90
5556;DHT22;2801;50.972;7.856;2023-07-28T05:12:02;16.10;99.90
5556;DHT22;2801;50.972;7.856;2023-07-28T05:14:29;16.10;99.90
5556;DHT22;2801;50.972;7.856;2023-07-28T05:16:56;16.10;99.90
5556;DHT22;2801;50.972;7.856;2023-07-28T05:19:23;16.20;99.90
5556;DHT22;2801;50.972;7.856;2023-07-28T05:21:50;16.20;99.90
5556;DHT22;2801;50.972;7.856;2023-07-28T05:24:17;16.20;99.90
5556;DHT22;2801;50.972;7.856;2023-07-28T05:26:44;16.30;99.90
5556;DHT22;2801;50.972;7.856;2023-07-28T05:29:11;16.30;99.90
5556;DHT22;2801;50.972;7.856;2023-07-28T05:31:38;16.30;99.90
5556;DHT22;2801;50.972;7.856;2023-07-28T05:34:05;16.30;99.90
5556;DHT22;2801;50.972;7.856;2023-07-28T05:36:32;16.40;99.90
5556;DHT22;2801;50.972;7.856;2023-07-28T05:38:59;16.40;99.90
5556;DHT22;2801;50.972;7.856;2023-07-28T05:41:26;16.50;99.90
5556;DHT22;2801;50.972;7.856;2023-07-28T05:43:53;16.50;99.90
5556;DHT22;2801;50.972;7.856;2023-07-28T05:46:20;16.50;99.90
5556;DHT22;2801;50.972;7.856;2023-07-28T05:48:47;16.50;99.90
5556;DHT22;2801;50.972;7.856;2023-07-28T05:51:14;16.50;99.90
5556;DHT22;2801;50.972;7.856;2023-07-28T05:53:41;16.50;99.90
5556;DHT22;2801;50.972;7.856;2023-07-28T05:56:08;16.50;99.90
5556;DHT22;2801;50.972;7.856;2023-07-28T05:58:34;16.50;99.90
5556;DHT22;2801;50.972;7.856;2023-07-28T06:01:02;16.60;99.90
5556;DHT22;2801;50.972;7.856;2023-07-28T06:03:29;16.50;99.90
5556;DHT22;2801;50.972;7.856;2023-07-28T06:05:57;16.50;99.90
5556;DHT22;2801;50.972;7.856;2023-07-28T06:08:24;16.50;99.90
5556;DHT22;2801;50.972;7.856;2023-07-28T06:10:51;16.60;99.90
5556;DHT22;2801;50.972;7.856;2023-07-28T06:13:18;16.60;99.90
5556;DHT22;2801;50.972;7.856;2023-07-28T06:15:45;16.70;99.90
5556;DHT22;2801;50.972;7.856;2023-07-28T06:18:13;16.70;99.90
5556;DHT22;2801;50.972;7.856;2023-07-28T06:20:44;16.70;99.90
5556;DHT22;2801;50.972;7.856;2023-07-28T06:23:11;16.80;99.90
5556;DHT22;2801;50.972;7.856;2023-07-28T06:25:38;16.80;99.90
5556;DHT22;2801;50.972;7.856;2023-07-28T06:28:11;16.80;99.90
5556;DHT22;2801;50.972;7.856;2023-07-28T06:30:39;16.80;99.90
5556;DHT22;2801;50.972;7.856;2023-07-28T06:33:06;16.80;99.90
5556;DHT22;2801;50.972;7.856;2023-07-28T06:35:33;16.80;99.90
5556;DHT22;2801;50.972;7.856;2023-07-28T06:38:01;16.80;99.90
5556;DHT22;2801;50.972;7.856;2023-07-28T06:40:29;16.80;99.90
5556;DHT22;2801;50.972;7.856;2023-07-28T06:42:56;16.80;99.90
5556;DHT22;2801;50.972;7.856;2023-07-28T06:45:23;16.80;99.90
5556;DHT22;2801;50.972;7.856;2023-07-28T06:47:50;16.90;99.90
5556;DHT22;2801;50.972;7.856;2023-07-28T06:50:18;16.90;99.90
5556;DHT22;2801;50.972;7.856;2023-07-28T06:52:45;17.00;99.90
5556;DHT22;2801;50.972;7.856;2023-07-28T06:55:14;16.90;99.90
5556;DHT22;2801;50.972;7.856;2023-07-28T06:57:41;16.90;99.90
5556;DHT22;2801;50.972;7.856;2023-07-28T07:00:09;17.00;99.90
5556;DHT22;2801;50.972;7.856;2023-07-28T07:02:37;17.00;99.90
5556;DHT22;2801;50.972;7.856;2023-07-28T07:05:04;17.00;99.90
5556;DHT22;2801;50.972;7.856;2023-07-28T07:07:32;17.10;99.90
5556;DHT22;2801;50.972;7.856;2023-07-28T07:09:59;17.10;99.90
5556;DHT22;2801;50.972;7.856;2023-07-28T07:12:26;17.10;99.90
5556;DHT22;2801;50.972;7.856;2023-07-28T07:14:53;17.10;99.90
5556;DHT22;2801;50.972;7.856;2023-07-28T07:17:21;17.10;99.90
5556;DHT22;2801;50.972;7.856;2023-07-28T07:19:48;17.20;99.90
5556;DHT22;2801;50.972;7.856;2023-07-28T07:22:15;17.20;99.90
5556;DHT22;2801;50.972;7.856;2023-07-28T07:24:42;17.30;99.90
5556;DHT22;2801;50.972;7.856;2023-07-28T07:27:09;17.30;99.90
5556;DHT22;2801;50.972;7.856;2023-07-28T07:29:40;17.30;99.90
5556;DHT22;2801;50.972;7.856;2023-07-28T07:32:08;17.50;99.90
5556;DHT22;2801;50.972;7.856;2023-07-28T07:34:36;17.40;99.90
5556;DHT22;2801;50.972;7.856;2023-07-28T07:37:05;17.40;99.90
5556;DHT22;2801;50.972;7.856;2023-07-28T07:39:32;17.40;99.90
5556;DHT22;2801;50.972;7.856;2023-07-28T07:42:00;17.40;99.90
5556;DHT22;2801;50.972;7.856;2023-07-28T07:44:27;17.40;99.90
5556;DHT22;2801;50.972;7.856;2023-07-28T07:46:55;17.40;99.90
5556;DHT22;2801;50.972;7.856;2023-07-28T07:49:23;17.40;99.90
5556;DHT22;2801;50.972;7.856;2023-07-28T07:51:50;17.40;99.90
5556;DHT22;2801;50.972;7.856;2023-07-28T07:54:17;17.40;99.90
5556;DHT22;2801;50.972;7.856;2023-07-28T07:56:45;17.50;99.90
5556;DHT22;2801;50.972;7.856;2023-07-28T07:59:13;17.40;99.90
5556;DHT22;2801;50.972;7.856;2023-07-28T08:01:40;17.50;99.90
5556;DHT22;2801;50.972;7.856;2023-07-28T08:04:08;17.40;99.90
5556;DHT22;2801;50.972;7.856;2023-07-28T08:06:35;17.40;99.90
5556;DHT22;2801;50.972;7.856;2023-07-28T08:09:03;17.30;99.90
5556;DHT22;2801;50.972;7.856;2023-07-28T08:11:30;17.40;99.90
5556;DHT22;2801;50.972;7.856;2023-07-28T08:13:57;17.40;99.90
5556;DHT22;2801;50.972;7.856;2023-07-28T08:16:24;17.40;99.90
5556;DHT22;2801;50.972;7.856;2023-07-28T08:18:51;17.40;99.90
5556;DHT22;2801;50.972;7.856;2023-07-28T08:21:18;17.40;99.90
5556;DHT22;2801;50.972;7.856;2023-07-28T08:23:45;17.40;99.90
5556;DHT22;2801;50.972;7.856;2023-07-28T08:26:12;17.50;99.90
5556;DHT22;2801;50.972;7.856;2023-07-28T08:28:40;17.60;99.90
5556;DHT22;2801;50.972;7.856;2023-07-28T08:31:07;17.70;99.90
5556;DHT22;2801;50.972;7.856;2023-07-28T08:33:35;17.70;99.90
5556;DHT22;2801;50.972;7.856;2023-07-28T08:36:01;17.70;99.90
5556;DHT22;2801;50.972;7.856;2023-07-28T08:38:30;17.80;99.90
5556;DHT22;2801;50.972;7.856;2023-07-28T08:40:57;17.90;99.90
5556;DHT22;2801;50.972;7.856;2023-07-28T08:43:25;18.00;99.90
5556;DHT22;2801;50.972;7.856;2023-07-28T08:45:53;18.20;99.90
5556;DHT22;2801;50.972;7.856;2023-07-28T08:48:22;18.30;99.90
5556;DHT22;2801;50.972;7.856;2023-07-28T08:50:49;18.30;99.90
5556;DHT22;2801;50.972;7.856;2023-07-28T08:53:17;18.30;99.90
5556;DHT22;2801;50.972;7.856;2023-07-28T08:55:44;18.30;99.90
5556;DHT22;2801;50.972;7.856;2023-07-28T08:58:30;18.40;99.90
5556;DHT22;2801;50.972;7.856;2023-07-28T09:00:57;18.30;99.90
5556;DHT22;2801;50.972;7.856;2023-07-28T09:03:27;18.40;99.90
5556;DHT22;2801;50.972;7.856;2023-07-28T09:06:00;18.30;99.90
5556;DHT22;2801;50.972;7.856;2023-07-28T09:08:30;18.30;99.90
5556;DHT22;2801;50.972;7.856;2023-07-28T09:11:02;18.20;99.90
5556;DHT22;2801;50.972;7.856;2023-07-28T09:13:39;18.30;99.90
5556;DHT22;2801;50.972;7.856;2023-07-28T09:16:17;18.30;99.90
5556;DHT22;2801;50.972;7.856;2023-07-28T09:18:48;18.30;99.90
5556;DHT22;2801;50.972;7.856;2023-07-28T09:21:17;18.40;99.90
5556;DHT22;2801;50.972;7.856;2023-07-28T09:23:46;18.50;99.90
5556;DHT22;2801;50.972;7.856;2023-07-28T09:26:15;18.40;99.90
5556;DHT22;2801;50.972;7.856;2023-07-28T09:28:43;18.40;99.90
5556;DHT22;2801;50.972;7.856;2023-07-28T09:31:10;18.40;99.90
5556;DHT22;2801;50.972;7.856;2023-07-28T09:33:38;18.40;99.90
5556;DHT22;2801;50.972;7.856;2023-07-28T09:36:10;18.50;99.90
5556;DHT22;2801;50.972;7.856;2023-07-28T09:38:39;18.70;99.90
5556;DHT22;2801;50.972;7.856;2023-07-28T09:41:09;18.70;99.90
5556;DHT22;2801;50.972;7.856;2023-07-28T09:43:40;18.60;99.90
5556;DHT22;2801;50.972;7.856;2023-07-28T09:46:09;18.70;99.90
5556;DHT22;2801;50.972;7.856;2023-07-28T09:48:38;18.70;99.90
5556;DHT22;2801;50.972;7.856;2023-07-28T09:51:18;18.70;99.90
5556;DHT22;2801;50.972;7.856;2023-07-28T09:53:52;18.90;99.90
5556;DHT22;2801;50.972;7.856;2023-07-28T09:56:30;18.90;99.90
5556;DHT22;2801;50.972;7.856;2023-07-28T09:58:58;19.00;99.90
5556;DHT22;2801;50.972;7.856;2023-07-28T10:01:28;19.10;99.90
5556;DHT22;2801;50.972;7.856;2023-07-28T10:03:55;19.30;99.90
5556;DHT22;2801;50.972;7.856;2023-07-28T10:06:23;19.30;99.90
5556;DHT22;2801;50.972;7.856;2023-07-28T10:08:50;19.10;99.90
5556;DHT22;2801;50.972;7.856;2023-07-28T10:11:18;18.90;99.90
5556;DHT22;2801;50.972;7.856;2023-07-28T10:13:47;19.00;99.90
5556;DHT22;2801;50.972;7.856;2023-07-28T10:16:16;19.00;99.90
5556;DHT22;2801;50.972;7.856;2023-07-28T10:18:54;19.10;99.90
5556;DHT22;2801;50.972;7.856;2023-07-28T10:21:21;19.30;99.90
5556;DHT22;2801;50.972;7.856;2023-07-28T10:23:55;19.30;99.90
5556;DHT22;2801;50.972;7.856;2023-07-28T10:26:40;19.40;99.90
5556;DHT22;2801;50.972;7.856;2023-07-28T10:29:11;19.40;99.90
5556;DHT22;2801;50.972;7.856;2023-07-28T10:31:55;19.40;99.90
5556;DHT22;2801;50.972;7.856;2023-07-28T10:34:23;19.50;99.90
5556;DHT22;2801;50.972;7.856;2023-07-28T10:36:57;19.40;99.90
5556;DHT22;2801;50.972;7.856;2023-07-28T10:39:26;19.30;99.90
5556;DHT22;2801;50.972;7.856;2023-07-28T10:42:08;19.20;99.90
5556;DHT22;2801;50.972;7.856;2023-07-28T10:44:36;19.10;99.90
5556;DHT22;2801;50.972;7.856;2023-07-28T10:47:10;19.00;99.90
5556;DHT22;2801;50.972;7.856;2023-07-28T10:49:38;19.10;99.90
5556;DHT22;2801;50.972;7.856;2023-07-28T10:52:05;19.30;99.90
5556;DHT22;2801;50.972;7.856;2023-07-28T10:54:33;19.30;99.90
5556;DHT22;2801;50.972;7.856;2023-07-28T10:57:04;19.40;99.90
5556;DHT22;2801;50.972;7.856;2023-07-28T10:59:32;19.50;99.90
5556;DHT22;2801;50.972;7.856;2023-07-28T11:01:59;19.60;99.90
5556;DHT22;2801;50.972;7.856;2023-07-28T11:04:26;19.60;99.90
5556;DHT22;2801;50.972;7.856;2023-07-28T11:06:53;19.70;99.90
5556;DHT22;2801;50.972;7.856;2023-07-28T11:09:22;19.80;99.90
5556;DHT22;2801;50.972;7.856;2023-07-28T11:11:51;19.90;99.90
5556;DHT22;2801;50.972;7.856;2023-07-28T11:14:18;20.00;99.90
5556;DHT22;2801;50.972;7.856;2023-07-28T11:16:47;20.10;99.90
5556;DHT22;2801;50.972;7.856;2023-07-28T11:19:15;20.20;99.90
5556;DHT22;2801;50.972;7.856;2023-07-28T11:21:46;20.20;99.90
5556;DHT22;2801;50.972;7.856;2023-07-28T11:24:19;20.40;99.90
5556;DHT22;2801;50.972;7.856;2023-07-28T11:26:47;20.50;99.90
5556;DHT22;2801;50.972;7.856;2023-07-28T11:29:16;20.60;99.90
5556;DHT22;2801;50.972;7.856;2023-07-28T11:31:45;20.70;99.90
5556;DHT22;2801;50.972;7.856;2023-07-28T11:34:19;20.70;99.90
5556;DHT22;2801;50.972;7.856;2023-07-28T11:36:46;20.60;99.90
5556;DHT22;2801;50.972;7.856;2023-07-28T11:39:14;20.50;99.90
5556;DHT22;2801;50.972;7.856;2023-07-28T11:41:43;20.50;99.90
5556;DHT22;2801;50.972;7.856;2023-07-28T11:44:11;20.60;99.90
5556;DHT22;2801;50.972;7.856;2023-07-28T11:46:42;20.60;99.90
5556;DHT22;2801;50.972;7.856;2023-07-28T11:49:20;20.70;99.90
5556;DHT22;2801;50.972;7.856;2023-07-28T11:51:53;20.80;99.90
5556;DHT22;2801;50.972;7.856;2023-07-28T11:54:22;20.90;99.90
5556;DHT22;2801;50.972;7.856;2023-07-28T11:56:53;21.00;99.90
5556;DHT22;2801;50.972;7.856;2023-07-28T11:59:21;21.00;99.90
5556;DHT22;2801;50.972;7.856;2023-07-28T12:02:03;21.20;99.90
5556;DHT22;2801;50.972;7.856;2023-07-28T12:04:39;21.40;99.90
5556;DHT22;2801;50.972;7.856;2023-07-28T12:07:14;21.40;99.90
5556;DHT22;2801;50.972;7.856;2023-07-28T12:12:13;21.40;99.90
5556;DHT22;2801;50.972;7.856;2023-07-28T12:14:43;21.40;99.90
5556;DHT22;2801;50.972;7.856;2023-07-28T12:17:33;21.40;99.90
5556;DHT22;2801;50.972;7.856;2023-07-28T12:20:04;21.50;99.90
5556;DHT22;2801;50.972;7.856;2023-07-28T12:22:45;21.50;99.90
5556;DHT22;2801;50.972;7.856;2023-07-28T12:25:12;21.60;99.90
5556;DHT22;2801;50.972;7.856;2023-07-28T12:27:39;21.70;99.90
5556;DHT22;2801;50.972;7.856;2023-07-28T12:30:07;21.90;99.90
5556;DHT22;2801;50.972;7.856;2023-07-28T12:32:42;22.10;99.90
5556;DHT22;2801;50.972;7.856;2023-07-28T12:35:29;22.20;99.90
5556;DHT22;2801;50.972;7.856;2023-07-28T12:38:02;22.10;99.90
5556;DHT22;2801;50.972;7.856;2023-07-28T12:40:51;22.10;99.90
5556;DHT22;2801;50.972;7.856;2023-07-28T12:43:21;22.20;99.90
5556;DHT22;2801;50.972;7.856;2023-07-28T12:45:52;22.20;99.90
5556;DHT22;2801;50.972;7.856;2023-07-28T12:48:24;22.20;99.90
5556;DHT22;2801;50.972;7.856;2023-07-28T12:50:51;22.10;99.90
5556;DHT22;2801;50.972;7.856;2023-07-28T12:53:29;22.20;99.90
5556;DHT22;2801;50.972;7.856;2023-07-28T12:55:56;22.30;99.90
5556;DHT22;2801;50.972;7.856;2023-07-28T12:58:27;22.40;99.90
5556;DHT22;2801;50.972;7.856;2023-07-28T13:00:58;22.60;99.90
5556;DHT22;2801;50.972;7.856;2023-07-28T13:03:28;22.60;99.90
5556;DHT22;2801;50.972;7.856;2023-07-28T13:05:55;22.50;99.90
5556;DHT22;2801;50.972;7.856;2023-07-28T13:08:22;22.30;99.90
5556;DHT22;2801;50.972;7.856;2023-07-28T13:10:52;22.10;99.90
5556;DHT22;2801;50.972;7.856;2023-07-28T13:13:22;22.10;99.90
5556;DHT22;2801;50.972;7.856;2023-07-28T13:15:49;22.20;99.90
5556;DHT22;2801;50.972;7.856;2023-07-28T13:18:16;22.30;99.90
5556;DHT22;2801;50.972;7.856;2023-07-28T13:20:43;22.30;99.90
5556;DHT22;2801;50.972;7.856;2023-07-28T13:23:10;22.30;99.90
5556;DHT22;2801;50.972;7.856;2023-07-28T13:25:37;22.20;99.90
5556;DHT22;2801;50.972;7.856;2023-07-28T13:28:05;22.10;99.90
5556;DHT22;2801;50.972;7.856;2023-07-28T13:30:36;22.00;99.90
5556;DHT22;2801;50.972;7.856;2023-07-28T13:33:03;21.80;99.90
5556;DHT22;2801;50.972;7.856;2023-07-28T13:35:32;21.80;99.90
5556;DHT22;2801;50.972;7.856;2023-07-28T13:37:59;21.80;99.90
5556;DHT22;2801;50.972;7.856;2023-07-28T13:40:26;21.90;99.90
5556;DHT22;2801;50.972;7.856;2023-07-28T13:42:54;22.10;99.90
5556;DHT22;2801;50.972;7.856;2023-07-28T13:45:21;22.40;99.90
5556;DHT22;2801;50.972;7.856;2023-07-28T13:47:48;22.50;99.90
5556;DHT22;2801;50.972;7.856;2023-07-28T13:50:15;22.60;99.90
5556;DHT22;2801;50.972;7.856;2023-07-28T13:52:42;22.70;99.90
5556;DHT22;2801;50.972;7.856;2023-07-28T13:55:09;22.90;99.90
5556;DHT22;2801;50.972;7.856;2023-07-28T13:57:39;23.10;99.90
5556;DHT22;2801;50.972;7.856;2023-07-28T14:00:07;23.30;99.90
5556;DHT22;2801;50.972;7.856;2023-07-28T14:02:36;23.50;99.90
5556;DHT22;2801;50.972;7.856;2023-07-28T14:05:05;23.50;99.90
5556;DHT22;2801;50.972;7.856;2023-07-28T14:07:33;23.60;99.90
5556;DHT22;2801;50.972;7.856;2023-07-28T14:10:03;23.60;99.90
5556;DHT22;2801;50.972;7.856;2023-07-28T14:12:33;23.60;99.90
5556;DHT22;2801;50.972;7.856;2023-07-28T14:15:00;23.60;99.90
5556;DHT22;2801;50.972;7.856;2023-07-28T14:17:27;23.60;99.90
5556;DHT22;2801;50.972;7.856;2023-07-28T14:19:54;23.60;99.90
5556;DHT22;2801;50.972;7.856;2023-07-28T14:22:21;23.50;99.90
5556;DHT22;2801;50.972;7.856;2023-07-28T14:24:48;23.60;99.90
5556;DHT22;2801;50.972;7.856;2023-07-28T14:27:15;23.60;99.90
5556;DHT22;2801;50.972;7.856;2023-07-28T14:29:42;23.50;99.90
5556;DHT22;2801;50.972;7.856;2023-07-28T14:32:09;23.50;99.90
5556;DHT22;2801;50.972;7.856;2023-07-28T14:34:36;23.40;99.90
5556;DHT22;2801;50.972;7.856;2023-07-28T14:37:04;23.30;99.90
5556;DHT22;2801;50.972;7.856;2023-07-28T14:39:32;23.30;99.90
5556;DHT22;2801;50.972;7.856;2023-07-28T14:41:59;23.40;99.90
5556;DHT22;2801;50.972;7.856;2023-07-28T14:44:26;23.60;99.90
5556;DHT22;2801;50.972;7.856;2023-07-28T14:46:53;23.50;99.90
5556;DHT22;2801;50.972;7.856;2023-07-28T14:49:20;23.50;99.90
5556;DHT22;2801;50.972;7.856;2023-07-28T14:51:47;23.30;99.90
5556;DHT22;2801;50.972;7.856;2023-07-28T14:54:14;23.20;99.90
5556;DHT22;2801;50.972;7.856;2023-07-28T14:56:41;23.10;99.90
5556;DHT22;2801;50.972;7.856;2023-07-28T14:59:08;22.90;99.90
5556;DHT22;2801;50.972;7.856;2023-07-28T15:01:36;22.80;99.90
5556;DHT22;2801;50.972;7.856;2023-07-28T15:04:04;22.60;99.90
5556;DHT22;2801;50.972;7.856;2023-07-28T15:06:33;22.50;99.90
5556;DHT22;2801;50.972;7.856;2023-07-28T15:09:00;22.40;99.90
5556;DHT22;2801;50.972;7.856;2023-07-28T15:11:27;22.30;99.90
5556;DHT22;2801;50.972;7.856;2023-07-28T15:13:54;22.20;99.90
5556;DHT22;2801;50.972;7.856;2023-07-28T15:16:21;22.00;99.90
5556;DHT22;2801;50.972;7.856;2023-07-28T15:18:48;21.80;99.90
5556;DHT22;2801;50.972;7.856;2023-07-28T15:21:15;21.60;99.90
5556;DHT22;2801;50.972;7.856;2023-07-28T15:23:42;21.40;99.90
5556;DHT22;2801;50.972;7.856;2023-07-28T15:26:09;21.20;99.90
5556;DHT22;2801;50.972;7.856;2023-07-28T15:28:36;21.00;99.90
5556;DHT22;2801;50.972;7.856;2023-07-28T15:31:03;20.80;99.90
5556;DHT22;2801;50.972;7.856;2023-07-28T15:33:30;20.60;99.90
5556;DHT22;2801;50.972;7.856;2023-07-28T15:35:57;20.30;99.90
5556;DHT22;2801;50.972;7.856;2023-07-28T15:38:24;20.00;99.90
5556;DHT22;2801;50.972;7.856;2023-07-28T15:40:51;19.70;99.90
5556;DHT22;2801;50.972;7.856;2023-07-28T15:43:24;19.50;99.90
5556;DHT22;2801;50.972;7.856;2023-07-28T15:45:51;19.30;99.90
5556;DHT22;2801;50.972;7.856;2023-07-28T15:48:21;19.20;99.90
5556;DHT22;2801;50.972;7.856;2023-07-28T15:50:48;19.10;99.90
5556;DHT22;2801;50.972;7.856;2023-07-28T15:53:15;19.00;99.90
5556;DHT22;2801;50.972;7.856;2023-07-28T15:55:42;19.00;99.90
5556;DHT22;2801;50.972;7.856;2023-07-28T15:58:09;18.90;99.90
5556;DHT22;2801;50.972;7.856;2023-07-28T16:00:36;18.90;99.90
5556;DHT22;2801;50.972;7.856;2023-07-28T16:03:03;18.90;99.90
5556;DHT22;2801;50.972;7.856;2023-07-28T16:05:30;18.90;99.90
5556;DHT22;2801;50.972;7.856;2023-07-28T16:07:57;18.90;99.90
5556;DHT22;2801;50.972;7.856;2023-07-28T16:10:24;18.90;99.90
5556;DHT22;2801;50.972;7.856;2023-07-28T16:12:51;19.00;99.90